createdAt,value
2018-11-07T00:02:22.409Z,61.80
2018-11-07T00:04:51.418Z,62.30
2018-11-07T00:07:20.454Z,62.30
2018-11-07T00:09:48.775Z,62.20
2018-11-07T00:12:16.990Z,62.30
2018-11-07T00:14:45.250Z,62.30
2018-11-07T00:17:13.495Z,61.80
2018-11-07T00:19:42.114Z,62.20
2018-11-07T00:22:10.378Z,62.60
2018-11-07T00:24:38.618Z,61.90
2018-11-07T00:27:06.914Z,62.10
2018-11-07T00:29:35.130Z,61.90
2018-11-07T00:32:03.453Z,62.00
2018-11-07T00:34:32.207Z,61.90
2018-11-07T00:37:00.453Z,60.90
2018-11-07T00:39:28.702Z,61.40
2018-11-07T00:41:57.727Z,61.30
2018-11-07T00:44:25.965Z,61.30
2018-11-07T00:46:54.992Z,61.00
2018-11-07T00:49:23.243Z,61.00
2018-11-07T00:51:52.266Z,61.30
2018-11-07T00:54:21.287Z,60.20
2018-11-07T00:56:49.566Z,60.20
2018-11-07T00:59:17.802Z,60.30
2018-11-07T01:01:46.046Z,60.70
2018-11-07T01:04:15.074Z,61.70
2018-11-07T01:06:43.352Z,61.20
2018-11-07T01:09:11.594Z,61.50
2018-11-07T01:11:40.655Z,61.50
2018-11-07T01:14:09.128Z,61.50
2018-11-07T01:16:37.467Z,61.10
2018-11-07T01:19:06.027Z,60.60
2018-11-07T01:21:35.041Z,60.70
2018-11-07T01:24:03.306Z,60.70
2018-11-07T01:26:31.713Z,60.70
2018-11-07T01:28:59.948Z,60.70
2018-11-07T01:31:28.958Z,61.10
2018-11-07T01:33:57.188Z,61.10
2018-11-07T01:36:25.453Z,61.20
2018-11-07T01:38:53.687Z,61.40
2018-11-07T01:41:21.934Z,61.80
2018-11-07T01:43:50.952Z,60.30
2018-11-07T01:46:19.227Z,60.30
2018-11-07T01:48:47.491Z,60.80
2018-11-07T01:51:15.745Z,61.70
2018-11-07T01:53:44.762Z,60.20
2018-11-07T01:56:13.005Z,60.10
2018-11-07T01:58:41.253Z,60.50
2018-11-07T02:01:09.535Z,61.00
2018-11-07T02:03:37.766Z,60.70
2018-11-07T02:06:06.030Z,61.50
2018-11-07T02:08:34.282Z,61.50
2018-11-07T02:11:02.511Z,59.50
2018-11-07T02:13:30.750Z,60.00
2018-11-07T02:15:59.011Z,60.30
2018-11-07T02:18:28.013Z,59.50
2018-11-07T02:20:57.041Z,60.60
2018-11-07T02:23:25.270Z,60.70
2018-11-07T02:25:54.395Z,60.90
2018-11-07T02:28:23.357Z,61.80
2018-11-07T02:30:52.406Z,61.20
2018-11-07T02:33:20.667Z,61.10
2018-11-07T02:35:48.922Z,61.10
2018-11-07T02:38:17.179Z,61.20
2018-11-07T02:40:46.243Z,61.40
2018-11-07T02:43:14.511Z,61.30
2018-11-07T02:45:42.733Z,61.30
2018-11-07T02:48:10.983Z,61.30
2018-11-07T02:50:39.219Z,60.70
2018-11-07T02:53:07.470Z,61.00
2018-11-07T02:55:35.729Z,61.10
2018-11-07T02:58:03.958Z,61.10
2018-11-07T03:00:32.247Z,61.10
2018-11-07T03:03:00.525Z,61.20
2018-11-07T03:05:29.701Z,61.20
2018-11-07T03:07:57.934Z,61.30
2018-11-07T03:10:26.214Z,61.90
2018-11-07T03:12:54.454Z,61.40
2018-11-07T03:15:23.499Z,60.70
2018-11-07T03:17:51.747Z,60.70
2018-11-07T03:20:20.006Z,60.90
2018-11-07T03:22:49.016Z,61.10
2018-11-07T03:25:17.277Z,61.00
2018-11-07T03:27:46.311Z,61.00
2018-11-07T03:30:14.552Z,60.80
2018-11-07T03:32:42.791Z,60.20
2018-11-07T03:35:11.026Z,60.00
2018-11-07T03:37:39.281Z,60.10
2018-11-07T03:40:07.536Z,60.70
2018-11-07T03:42:36.563Z,60.10
2018-11-07T03:45:04.828Z,60.10
2018-11-07T03:47:33.082Z,60.50
2018-11-07T03:50:02.094Z,60.50
2018-11-07T03:52:30.395Z,60.40
2018-11-07T03:54:58.622Z,60.40
2018-11-07T03:57:27.689Z,60.30
2018-11-07T03:59:55.964Z,60.20
2018-11-07T04:02:24.198Z,60.50
2018-11-07T04:04:52.430Z,60.10
2018-11-07T04:07:20.683Z,59.80
2018-11-07T04:09:48.933Z,60.20
2018-11-07T04:12:17.167Z,58.90
2018-11-07T04:14:46.193Z,60.20
2018-11-07T04:17:14.439Z,60.20
2018-11-07T04:19:43.448Z,60.30
2018-11-07T04:22:11.694Z,60.20
2018-11-07T04:24:40.695Z,59.20
2018-11-07T04:27:09.717Z,59.70
2018-11-07T04:29:37.946Z,59.60
2018-11-07T04:32:06.206Z,60.00
2018-11-07T04:34:34.555Z,60.60
2018-11-07T04:37:02.785Z,60.20
2018-11-07T04:39:31.812Z,60.70
2018-11-07T04:42:00.056Z,60.60
2018-11-07T04:44:29.050Z,60.40
2018-11-07T04:46:58.076Z,59.90
2018-11-07T04:49:26.314Z,59.20
2018-11-07T04:51:55.334Z,60.10
2018-11-07T04:54:23.588Z,60.10
2018-11-07T04:56:52.609Z,60.60
2018-11-07T04:59:20.867Z,60.60
2018-11-07T05:01:49.123Z,59.90
2018-11-07T05:04:18.155Z,60.00
2018-11-07T05:06:46.390Z,60.00
2018-11-07T05:09:15.395Z,60.10
2018-11-07T05:11:43.645Z,60.10
2018-11-07T05:14:12.682Z,60.70
2018-11-07T05:16:40.937Z,60.60
2018-11-07T05:19:09.170Z,60.00
2018-11-07T05:21:37.430Z,60.10
2018-11-07T05:24:05.689Z,60.10
2018-11-07T05:26:33.949Z,60.20
2018-11-07T05:29:02.205Z,60.50
2018-11-07T05:31:31.219Z,60.40
2018-11-07T05:33:59.458Z,60.40
2018-11-07T05:36:28.454Z,60.50
2018-11-07T05:38:57.487Z,60.50
2018-11-07T05:41:25.733Z,60.50
2018-11-07T05:43:53.975Z,60.40
2018-11-07T05:46:22.226Z,60.50
2018-11-07T05:48:50.483Z,60.50
2018-11-07T05:51:18.722Z,60.20
2018-11-07T05:53:47.723Z,59.80
2018-11-07T05:56:15.990Z,59.70
2018-11-07T05:58:44.993Z,59.80
2018-11-07T06:01:14.010Z,59.80
2018-11-07T06:03:42.238Z,59.80
2018-11-07T06:06:11.263Z,59.20
2018-11-07T06:08:39.530Z,59.10
2018-11-07T06:11:07.775Z,59.40
2018-11-07T06:13:36.004Z,59.70
2018-11-07T06:16:04.323Z,60.10
2018-11-07T06:18:32.524Z,60.40
2018-11-07T06:21:01.526Z,60.50
2018-11-07T06:23:29.786Z,60.40
2018-11-07T06:25:58.795Z,59.80
2018-11-07T06:28:27.062Z,59.80
2018-11-07T06:30:56.060Z,59.90
2018-11-07T06:33:24.290Z,59.90
2018-11-07T06:35:52.551Z,60.10
2018-11-07T06:38:20.807Z,59.80
2018-11-07T06:40:49.059Z,60.20
2018-11-07T06:43:17.297Z,59.00
2018-11-07T06:45:45.546Z,59.20
2018-11-07T06:48:14.543Z,60.70
2018-11-07T06:50:42.827Z,60.70
2018-11-07T06:53:11.067Z,60.80
2018-11-07T06:55:39.360Z,60.40
2018-11-07T06:58:08.348Z,60.80
2018-11-07T07:00:36.594Z,60.70
2018-11-07T07:03:04.838Z,60.60
2018-11-07T07:05:33.835Z,61.20
2018-11-07T07:08:02.866Z,61.50
2018-11-07T07:10:31.116Z,61.40
2018-11-07T07:13:00.142Z,61.00
2018-11-07T07:15:28.486Z,61.00
2018-11-07T07:17:57.128Z,61.30
2018-11-07T07:20:25.315Z,61.70
2018-11-07T07:22:53.582Z,62.20
2018-11-07T07:25:21.854Z,62.50
2018-11-07T07:27:50.086Z,62.60
2018-11-07T07:30:18.362Z,62.80
2018-11-07T07:32:47.366Z,62.60
2018-11-07T07:35:15.610Z,62.60
2018-11-07T07:37:43.845Z,62.90
2018-11-07T07:40:12.117Z,63.20
2018-11-07T07:42:40.368Z,63.00
2018-11-07T07:45:08.614Z,63.10
2018-11-07T07:47:36.870Z,63.10
2018-11-07T07:50:05.901Z,62.70
2018-11-07T07:52:34.215Z,62.70
2018-11-07T07:55:02.459Z,62.90
2018-11-07T07:57:30.734Z,63.80
2018-11-07T07:59:59.056Z,63.00
2018-11-07T08:02:27.274Z,63.60
2018-11-07T08:04:55.524Z,63.00
2018-11-07T08:07:24.548Z,64.10
2018-11-07T08:09:52.799Z,64.20
2018-11-07T08:12:21.074Z,64.30
2018-11-07T08:14:49.325Z,63.90
2018-11-07T08:17:18.358Z,64.60
2018-11-07T08:19:46.619Z,64.50
2018-11-07T08:22:14.894Z,64.80
2018-11-07T08:24:43.767Z,65.20
2018-11-07T08:27:12.811Z,63.50
2018-11-07T08:29:41.084Z,63.50
2018-11-07T08:32:09.330Z,64.10
2018-11-07T08:34:37.642Z,63.50
2018-11-07T08:37:05.911Z,63.10
2018-11-07T08:39:34.164Z,63.30
2018-11-07T08:42:02.415Z,62.70
2018-11-07T08:44:31.539Z,61.80
2018-11-07T08:46:59.815Z,61.70
2018-11-07T08:49:28.093Z,61.60
2018-11-07T08:51:56.820Z,60.80
2018-11-07T08:54:25.059Z,60.50
2018-11-07T08:56:53.334Z,61.00
2018-11-07T08:59:21.579Z,59.30
2018-11-07T09:01:49.933Z,59.30
2018-11-07T09:04:18.167Z,60.40
2018-11-07T09:06:46.415Z,60.90
2018-11-07T09:09:14.697Z,59.90
2018-11-07T09:11:42.945Z,59.70
2018-11-07T09:14:11.193Z,59.80
2018-11-07T09:16:40.239Z,60.40
2018-11-07T09:19:08.487Z,60.10
2018-11-07T09:21:37.539Z,59.90
2018-11-07T09:24:05.782Z,59.10
2018-11-07T09:26:34.050Z,58.60
2018-11-07T09:29:02.347Z,57.80
2018-11-07T09:31:30.574Z,57.50
2018-11-07T09:33:59.578Z,58.50
2018-11-07T09:36:27.883Z,58.50
2018-11-07T09:38:56.136Z,57.80
2018-11-07T09:41:24.379Z,56.50
2018-11-07T09:43:53.450Z,55.70
2018-11-07T09:46:21.695Z,55.60
2018-11-07T09:48:49.967Z,55.50
2018-11-07T09:51:18.207Z,55.60
2018-11-07T09:53:47.255Z,55.70
2018-11-07T09:56:15.515Z,55.70
2018-11-07T09:58:43.757Z,55.60
2018-11-07T10:01:12.793Z,55.80
2018-11-07T10:03:41.108Z,55.80
2018-11-07T10:06:09.342Z,56.10
2018-11-07T10:08:37.634Z,56.00
2018-11-07T10:11:05.864Z,55.70
2018-11-07T10:13:34.864Z,54.00
2018-11-07T10:16:03.125Z,54.00
2018-11-07T10:18:31.372Z,53.80
2018-11-07T10:20:59.650Z,54.70
2018-11-07T10:23:28.659Z,53.70
2018-11-07T10:25:57.697Z,54.20
2018-11-07T10:28:26.165Z,54.20
2018-11-07T10:30:54.223Z,54.80
2018-11-07T10:33:22.490Z,55.60
2018-11-07T10:35:50.737Z,55.30
2018-11-07T10:38:19.776Z,54.30
2018-11-07T10:40:48.107Z,54.30
2018-11-07T10:43:16.330Z,53.80
2018-11-07T10:45:44.598Z,54.50
2018-11-07T10:48:12.850Z,54.60
2018-11-07T10:50:41.105Z,54.80
2018-11-07T10:53:09.375Z,56.00
2018-11-07T10:55:37.646Z,55.50
2018-11-07T10:58:05.894Z,55.20
2018-11-07T11:00:34.125Z,53.20
2018-11-07T11:03:02.397Z,51.50
2018-11-07T11:05:30.650Z,52.50
2018-11-07T11:07:59.561Z,52.80
2018-11-07T11:10:27.813Z,52.90
2018-11-07T11:12:56.858Z,54.60
2018-11-07T11:15:25.117Z,53.90
2018-11-07T11:17:53.380Z,54.20
2018-11-07T11:20:21.652Z,53.90
2018-11-07T11:22:50.699Z,53.90
2018-11-07T11:25:18.969Z,53.80
2018-11-07T11:27:47.222Z,53.80
2018-11-07T11:30:15.555Z,54.30
2018-11-07T11:32:43.786Z,54.70
2018-11-07T11:35:12.207Z,54.90
2018-11-07T11:37:40.310Z,54.30
2018-11-07T11:40:08.563Z,54.30
2018-11-07T11:42:37.683Z,53.50
2018-11-07T11:45:05.959Z,53.40
2018-11-07T11:47:34.202Z,54.20
2018-11-07T11:50:03.239Z,52.70
2018-11-07T11:52:31.517Z,52.60
2018-11-07T11:54:59.765Z,51.60
2018-11-07T11:57:28.014Z,51.50
2018-11-07T11:59:57.456Z,49.90
2018-11-07T12:02:25.406Z,49.90
2018-11-07T12:04:53.591Z,50.30
2018-11-07T12:07:21.882Z,50.10
2018-11-07T12:09:50.131Z,50.20
2018-11-07T12:12:18.402Z,50.30
2018-11-07T12:14:47.442Z,49.30
2018-11-07T12:17:15.723Z,49.10
2018-11-07T12:19:43.974Z,49.20
2018-11-07T12:22:12.226Z,48.40
2018-11-07T12:24:41.322Z,47.40
2018-11-07T12:27:09.562Z,47.80
2018-11-07T12:29:37.836Z,47.90
2018-11-07T12:32:06.075Z,48.50
2018-11-07T12:34:34.341Z,48.50
2018-11-07T12:37:02.582Z,48.00
2018-11-07T12:39:31.668Z,48.20
2018-11-07T12:42:00.677Z,47.90
2018-11-07T12:44:29.706Z,47.90
2018-11-07T12:46:57.955Z,47.60
2018-11-07T12:49:26.247Z,47.50
2018-11-07T12:51:54.521Z,48.00
2018-11-07T12:54:23.634Z,48.50
2018-11-07T12:56:51.905Z,47.80
2018-11-07T12:59:20.153Z,48.40
2018-11-07T13:01:48.406Z,48.30
2018-11-07T13:04:17.468Z,47.60
2018-11-07T13:06:45.899Z,47.60
2018-11-07T13:09:14.168Z,47.10
2018-11-07T13:11:42.423Z,46.60
2018-11-07T13:14:11.469Z,46.70
2018-11-07T13:16:39.811Z,46.60
2018-11-07T13:19:08.056Z,44.60
2018-11-07T13:21:36.317Z,45.30
2018-11-07T13:24:04.586Z,44.70
2018-11-07T13:26:32.867Z,44.00
2018-11-07T13:29:01.114Z,45.20
2018-11-07T13:31:29.382Z,43.90
2018-11-07T13:33:57.629Z,42.80
2018-11-07T13:36:26.678Z,43.20
2018-11-07T13:38:55.275Z,43.00
2018-11-07T13:41:23.198Z,42.80
2018-11-07T13:43:51.536Z,43.00
2018-11-07T13:46:20.548Z,43.20
2018-11-07T13:48:48.812Z,43.20
2018-11-07T13:51:17.875Z,43.40
2018-11-07T13:53:46.202Z,43.50
2018-11-07T13:56:14.454Z,43.90
2018-11-07T13:58:43.487Z,44.40
2018-11-07T14:01:11.736Z,43.40
2018-11-07T14:03:40.762Z,43.50
2018-11-07T14:06:09.010Z,43.50
2018-11-07T14:08:37.270Z,44.00
2018-11-07T14:11:06.303Z,44.00
2018-11-07T14:13:34.582Z,44.00
2018-11-07T14:16:02.908Z,44.60
2018-11-07T14:18:31.127Z,45.10
2018-11-07T14:20:59.385Z,44.90
2018-11-07T14:23:27.655Z,44.40
2018-11-07T14:25:55.924Z,43.70
2018-11-07T14:28:24.388Z,44.00
2018-11-07T14:30:53.199Z,43.60
2018-11-07T14:33:21.470Z,43.40
2018-11-07T14:35:49.729Z,44.10
2018-11-07T14:38:18.028Z,44.80
2018-11-07T14:40:46.256Z,46.10
2018-11-07T14:43:14.513Z,46.60
2018-11-07T14:45:42.752Z,46.40
2018-11-07T14:48:11.028Z,47.50
2018-11-07T14:50:39.291Z,48.70
2018-11-07T14:53:08.342Z,49.00
2018-11-07T14:55:36.599Z,49.00
2018-11-07T14:58:04.843Z,49.40
2018-11-07T15:00:33.107Z,50.00
2018-11-07T15:03:01.371Z,50.00
2018-11-07T15:05:30.479Z,49.80
2018-11-07T15:07:58.690Z,49.90
2018-11-07T15:10:26.951Z,50.30
2018-11-07T15:12:55.218Z,50.30
2018-11-07T15:15:23.507Z,51.30
2018-11-07T15:17:51.757Z,51.20
2018-11-07T15:20:20.051Z,51.10
2018-11-07T15:22:48.314Z,52.00
2018-11-07T15:25:16.577Z,52.20
2018-11-07T15:27:44.842Z,52.50
2018-11-07T15:30:13.102Z,53.10
2018-11-07T15:32:41.379Z,52.60
2018-11-07T15:35:09.620Z,52.50
2018-11-07T15:37:37.873Z,52.60
2018-11-07T15:40:06.127Z,53.10
2018-11-07T15:42:34.404Z,53.20
2018-11-07T15:45:02.669Z,53.30
2018-11-07T15:47:30.926Z,52.80
2018-11-07T15:50:00.019Z,53.90
2018-11-07T15:52:29.061Z,54.50
2018-11-07T15:54:58.075Z,54.50
2018-11-07T15:57:26.319Z,54.40
2018-11-07T15:59:54.637Z,54.40
2018-11-07T16:02:22.867Z,54.90
2018-11-07T16:04:51.134Z,54.80
2018-11-07T16:07:20.168Z,54.70
2018-11-07T16:09:48.518Z,54.70
2018-11-07T16:12:16.769Z,54.90
2018-11-07T16:14:45.051Z,54.90
2018-11-07T16:17:13.281Z,54.80
2018-11-07T16:19:41.559Z,54.90
2018-11-07T16:22:09.826Z,55.20
2018-11-07T16:24:38.087Z,55.40
2018-11-07T16:27:06.323Z,55.00
2018-11-07T16:29:34.562Z,55.10
2018-11-07T16:32:02.864Z,55.00
2018-11-07T16:34:31.901Z,55.50
2018-11-07T16:37:00.202Z,55.30
2018-11-07T16:39:28.450Z,54.60
2018-11-07T16:41:56.799Z,55.50
2018-11-07T16:44:24.949Z,55.30
2018-11-07T16:46:54.002Z,56.10
2018-11-07T16:49:22.230Z,56.00
2018-11-07T16:51:50.550Z,56.40
2018-11-07T16:54:18.786Z,56.50
2018-11-07T16:56:47.021Z,56.50
2018-11-07T16:59:15.320Z,56.60
2018-11-07T17:01:43.534Z,56.50
2018-11-07T17:04:11.805Z,56.50
2018-11-07T17:06:40.071Z,56.60
2018-11-07T17:09:08.339Z,56.60
2018-11-07T17:11:36.600Z,56.60
2018-11-07T17:14:05.655Z,56.70
2018-11-07T17:16:33.910Z,56.70
2018-11-07T17:19:02.214Z,56.80
2018-11-07T17:21:30.475Z,56.70
2018-11-07T17:26:39.628Z,57.10
2018-11-07T17:29:07.887Z,57.10
2018-11-07T17:31:36.225Z,56.80
2018-11-07T17:34:04.387Z,56.80
2018-11-07T17:36:33.421Z,57.30
2018-11-07T17:39:01.671Z,57.40
2018-11-07T17:41:29.956Z,57.50
2018-11-07T17:43:58.218Z,58.20
2018-11-07T17:46:26.512Z,57.50
2018-11-07T17:48:54.760Z,57.50
2018-11-07T17:51:23.784Z,58.00
2018-11-07T17:53:52.053Z,58.00
2018-11-07T17:56:20.306Z,58.10
2018-11-07T17:58:49.333Z,58.40
2018-11-07T18:01:17.566Z,58.40
2018-11-07T18:03:45.881Z,58.10
2018-11-07T18:06:14.126Z,58.00
2018-11-07T18:08:42.370Z,58.30
2018-11-07T18:11:10.611Z,58.30
2018-11-07T18:13:38.924Z,59.30
2018-11-07T18:16:07.178Z,58.90
2018-11-07T18:18:35.435Z,58.80
2018-11-07T18:21:03.695Z,59.30
2018-11-07T18:23:31.969Z,59.30
2018-11-07T18:26:00.237Z,59.70
2018-11-07T18:28:28.470Z,59.80
2018-11-07T18:30:57.514Z,60.10
2018-11-07T18:33:25.762Z,59.90
2018-11-07T18:35:54.116Z,59.80
2018-11-07T18:38:22.287Z,59.80
2018-11-07T18:40:50.567Z,59.80
2018-11-07T18:43:19.575Z,59.70
2018-11-07T18:45:48.621Z,60.40
2018-11-07T18:48:16.863Z,60.40
2018-11-07T18:50:45.425Z,60.10
2018-11-07T18:53:13.560Z,60.20
2018-11-07T18:55:41.842Z,60.40
2018-11-07T18:58:10.106Z,61.00
2018-11-07T19:00:38.394Z,60.90
2018-11-07T19:03:06.642Z,61.00
2018-11-07T19:05:34.895Z,61.30
2018-11-07T19:08:03.551Z,61.40
2018-11-07T19:10:31.784Z,61.30
2018-11-07T19:13:00.032Z,61.30
2018-11-07T19:15:28.275Z,61.50
2018-11-07T19:17:57.329Z,61.80
2018-11-07T19:20:25.634Z,61.70
2018-11-07T19:22:54.623Z,61.90
2018-11-07T19:25:23.646Z,62.10
2018-11-07T19:27:51.913Z,62.10
2018-11-07T19:30:20.178Z,62.00
2018-11-07T19:32:49.258Z,62.10
2018-11-07T19:35:17.467Z,62.10
2018-11-07T19:37:45.764Z,62.20
2018-11-07T19:40:14.109Z,62.80
2018-11-07T19:42:42.313Z,62.70
2018-11-07T19:45:10.577Z,62.40
2018-11-07T19:47:38.822Z,63.50
2018-11-07T19:50:07.880Z,62.90
2018-11-07T19:52:36.138Z,62.80
2018-11-07T19:55:04.469Z,63.10
2018-11-07T19:57:32.790Z,62.90
2018-11-07T20:00:01.993Z,62.80
2018-11-07T20:02:30.239Z,62.90
2018-11-07T20:04:58.580Z,62.70
2018-11-07T20:07:27.593Z,62.60
2018-11-07T20:09:57.454Z,63.10
2018-11-07T20:12:26.022Z,63.10
2018-11-07T20:14:54.274Z,63.20
2018-11-07T20:17:22.517Z,62.80
2018-11-07T20:19:51.556Z,63.20
2018-11-07T20:22:19.778Z,63.10
2018-11-07T20:24:49.111Z,63.10
2018-11-07T20:27:18.124Z,62.90
2018-11-07T20:29:46.371Z,63.00
2018-11-07T20:32:14.628Z,63.00
2018-11-07T20:34:43.647Z,63.50
2018-11-07T20:37:11.910Z,63.50
2018-11-07T20:39:40.172Z,63.10
2018-11-07T20:42:09.176Z,64.40
2018-11-07T20:44:38.215Z,63.60
2018-11-07T20:47:06.476Z,63.50
2018-11-07T20:49:34.733Z,63.40
2018-11-07T20:52:03.023Z,63.30
2018-11-07T20:54:31.267Z,63.10
2018-11-07T20:57:00.305Z,63.20
2018-11-07T20:59:28.546Z,63.20
2018-11-07T21:01:56.883Z,63.20
2018-11-07T21:04:25.832Z,63.50
2018-11-07T21:06:54.094Z,63.50
2018-11-07T21:09:22.331Z,63.20
2018-11-07T21:11:50.597Z,63.50
2018-11-07T21:14:18.851Z,63.40
2018-11-07T21:16:47.558Z,63.80
2018-11-07T21:19:16.495Z,64.10
2018-11-07T21:21:44.757Z,64.10
2018-11-07T21:24:13.772Z,63.70
2018-11-07T21:26:42.024Z,63.70
2018-11-07T21:29:10.511Z,63.30
2018-11-07T21:31:38.762Z,64.00
2018-11-07T21:34:08.543Z,63.60
2018-11-07T21:36:36.811Z,63.60
2018-11-07T21:39:05.065Z,63.40
2018-11-07T21:41:33.346Z,63.90
2018-11-07T21:44:01.681Z,64.00
2018-11-07T21:46:29.859Z,63.40
2018-11-07T21:48:58.898Z,64.20
2018-11-07T21:51:27.174Z,64.10
2018-11-07T21:53:55.418Z,64.40
2018-11-07T21:56:23.685Z,64.30
2018-11-07T21:58:51.971Z,64.30
2018-11-07T22:01:20.966Z,64.30
2018-11-07T22:03:49.228Z,64.30
2018-11-07T22:06:17.483Z,64.30
2018-11-07T22:08:46.482Z,64.30
2018-11-07T22:11:15.519Z,64.30
2018-11-07T22:13:43.766Z,64.30
2018-11-07T22:16:12.030Z,64.40
2018-11-07T22:18:40.290Z,64.30
2018-11-07T22:21:09.315Z,64.30
2018-11-07T22:23:37.681Z,64.30
2018-11-07T22:26:05.923Z,64.30
2018-11-07T22:28:34.226Z,64.40
2018-11-07T22:31:03.221Z,64.40
2018-11-07T22:33:31.487Z,64.30
2018-11-07T22:36:00.518Z,64.50
2018-11-07T22:38:28.750Z,64.50
2018-11-07T22:40:57.763Z,64.00
2018-11-07T22:43:26.003Z,64.00
2018-11-07T22:45:54.956Z,64.50
2018-11-07T22:48:23.218Z,64.40
2018-11-07T22:50:51.466Z,63.60
2018-11-07T22:53:19.717Z,63.90
2018-11-07T22:55:47.975Z,63.80
2018-11-07T22:58:16.227Z,63.80
2018-11-07T23:00:44.479Z,63.50
2018-11-07T23:03:12.999Z,64.30
2018-11-07T23:05:41.254Z,64.30
2018-11-07T23:08:09.506Z,64.20
2018-11-07T23:10:37.817Z,63.90
2018-11-07T23:13:06.027Z,64.20
2018-11-07T23:15:35.051Z,64.20
2018-11-07T23:18:03.333Z,64.20
2018-11-07T23:20:31.559Z,64.20
2018-11-07T23:22:59.809Z,63.80
2018-11-07T23:25:28.266Z,63.60
2018-11-07T23:27:56.519Z,63.70
2018-11-07T23:30:24.770Z,63.40
2018-11-07T23:32:53.282Z,63.20
2018-11-07T23:35:21.518Z,63.60
2018-11-07T23:37:49.765Z,63.60
2018-11-07T23:40:18.019Z,63.60
2018-11-07T23:42:46.264Z,63.70
2018-11-07T23:45:15.296Z,63.70
2018-11-07T23:47:43.538Z,63.60
2018-11-07T23:50:12.546Z,63.20
2018-11-07T23:52:41.140Z,63.20
2018-11-07T23:55:09.380Z,63.40
2018-11-07T23:57:38.389Z,63.90
